sensor_id;sensor_type;location;lat;lon;timestamp;P1;durP1;ratioP1;P2;durP2;ratioP2
39322;SDS011;25036;53.638;10.134;2022-08-07T00:00:45;6.70;;;5.77;;
39322;SDS011;25036;53.638;10.134;2022-08-07T00:01:46;9.20;;;7.00;;
39322;SDS011;25036;53.638;10.134;2022-08-07T00:02:46;8.93;;;7.18;;
39322;SDS011;25036;53.638;10.134;2022-08-07T00:03:46;8.73;;;7.23;;
39322;SDS011;25036;53.638;10.134;2022-08-07T00:04:46;9.83;;;7.20;;
39322;SDS011;25036;53.638;10.134;2022-08-07T00:05:46;9.13;;;7.17;;
39322;SDS011;25036;53.638;10.134;2022-08-07T00:06:47;7.82;;;6.72;;
39322;SDS011;25036;53.638;10.134;2022-08-07T00:07:47;7.35;;;6.50;;
39322;SDS011;25036;53.638;10.134;2022-08-07T00:08:47;6.87;;;6.23;;
39322;SDS011;25036;53.638;10.134;2022-08-07T00:09:47;8.47;;;6.40;;
39322;SDS011;25036;53.638;10.134;2022-08-07T00:10:48;7.93;;;6.17;;
39322;SDS011;25036;53.638;10.134;2022-08-07T00:11:48;6.97;;;6.28;;
39322;SDS011;25036;53.638;10.134;2022-08-07T00:12:49;8.23;;;5.82;;
39322;SDS011;25036;53.638;10.134;2022-08-07T00:13:49;7.72;;;6.45;;
39322;SDS011;25036;53.638;10.134;2022-08-07T00:14:49;7.20;;;6.00;;
39322;SDS011;25036;53.638;10.134;2022-08-07T00:15:50;7.70;;;6.40;;
39322;SDS011;25036;53.638;10.134;2022-08-07T00:16:50;7.93;;;6.20;;
39322;SDS011;25036;53.638;10.134;2022-08-07T00:17:50;7.95;;;6.40;;
39322;SDS011;25036;53.638;10.134;2022-08-07T00:18:51;8.17;;;6.27;;
39322;SDS011;25036;53.638;10.134;2022-08-07T00:19:51;7.30;;;6.50;;
39322;SDS011;25036;53.638;10.134;2022-08-07T00:20:52;8.77;;;6.37;;
39322;SDS011;25036;53.638;10.134;2022-08-07T00:21:53;6.63;;;6.03;;
39322;SDS011;25036;53.638;10.134;2022-08-07T00:22:53;7.00;;;6.30;;
39322;SDS011;25036;53.638;10.134;2022-08-07T00:23:53;6.97;;;5.77;;
39322;SDS011;25036;53.638;10.134;2022-08-07T00:24:53;8.02;;;6.05;;
39322;SDS011;25036;53.638;10.134;2022-08-07T00:25:53;5.90;;;5.37;;
39322;SDS011;25036;53.638;10.134;2022-08-07T00:26:53;6.15;;;5.55;;
39322;SDS011;25036;53.638;10.134;2022-08-07T00:27:54;6.17;;;5.57;;
39322;SDS011;25036;53.638;10.134;2022-08-07T00:28:54;6.70;;;6.00;;
39322;SDS011;25036;53.638;10.134;2022-08-07T00:29:54;6.47;;;5.60;;
39322;SDS011;25036;53.638;10.134;2022-08-07T00:30:54;8.00;;;5.73;;
39322;SDS011;25036;53.638;10.134;2022-08-07T00:31:54;6.57;;;5.70;;
39322;SDS011;25036;53.638;10.134;2022-08-07T00:32:58;6.22;;;5.63;;
39322;SDS011;25036;53.638;10.134;2022-08-07T00:33:59;6.85;;;5.95;;
39322;SDS011;25036;53.638;10.134;2022-08-07T00:34:59;6.28;;;5.68;;
39322;SDS011;25036;53.638;10.134;2022-08-07T00:35:59;6.33;;;5.67;;
39322;SDS011;25036;53.638;10.134;2022-08-07T00:37:00;5.97;;;5.38;;
39322;SDS011;25036;53.638;10.134;2022-08-07T00:38:00;6.28;;;5.68;;
39322;SDS011;25036;53.638;10.134;2022-08-07T00:39:00;6.37;;;5.77;;
39322;SDS011;25036;53.638;10.134;2022-08-07T00:40:00;6.73;;;6.13;;
39322;SDS011;25036;53.638;10.134;2022-08-07T00:41:01;6.45;;;5.85;;
39322;SDS011;25036;53.638;10.134;2022-08-07T00:42:02;6.10;;;5.50;;
39322;SDS011;25036;53.638;10.134;2022-08-07T00:43:02;5.97;;;5.38;;
39322;SDS011;25036;53.638;10.134;2022-08-07T00:44:03;7.23;;;6.53;;
39322;SDS011;25036;53.638;10.134;2022-08-07T00:45:03;6.40;;;5.77;;
39322;SDS011;25036;53.638;10.134;2022-08-07T00:46:03;7.15;;;6.20;;
39322;SDS011;25036;53.638;10.134;2022-08-07T00:47:04;9.02;;;5.97;;
39322;SDS011;25036;53.638;10.134;2022-08-07T00:48:05;6.45;;;5.85;;
39322;SDS011;25036;53.638;10.134;2022-08-07T00:49:05;6.00;;;5.40;;
39322;SDS011;25036;53.638;10.134;2022-08-07T00:50:05;6.70;;;6.07;;
39322;SDS011;25036;53.638;10.134;2022-08-07T00:51:06;7.28;;;5.38;;
39322;SDS011;25036;53.638;10.134;2022-08-07T00:52:08;6.63;;;5.60;;
39322;SDS011;25036;53.638;10.134;2022-08-07T00:53:08;6.72;;;6.00;;
39322;SDS011;25036;53.638;10.134;2022-08-07T00:54:08;7.57;;;6.22;;
39322;SDS011;25036;53.638;10.134;2022-08-07T00:55:09;6.60;;;5.95;;
39322;SDS011;25036;53.638;10.134;2022-08-07T00:56:09;7.15;;;5.47;;
39322;SDS011;25036;53.638;10.134;2022-08-07T00:57:11;7.82;;;6.32;;
39322;SDS011;25036;53.638;10.134;2022-08-07T00:58:11;6.70;;;5.80;;
39322;SDS011;25036;53.638;10.134;2022-08-07T00:59:12;6.47;;;5.83;;
39322;SDS011;25036;53.638;10.134;2022-08-07T01:00:12;8.73;;;6.27;;
39322;SDS011;25036;53.638;10.134;2022-08-07T01:01:14;6.43;;;5.70;;
39322;SDS011;25036;53.638;10.134;2022-08-07T01:02:15;6.88;;;6.28;;
39322;SDS011;25036;53.638;10.134;2022-08-07T01:03:15;7.40;;;6.47;;
39322;SDS011;25036;53.638;10.134;2022-08-07T01:04:17;6.15;;;5.53;;
39322;SDS011;25036;53.638;10.134;2022-08-07T01:05:17;6.77;;;6.03;;
39322;SDS011;25036;53.638;10.134;2022-08-07T01:06:19;7.32;;;6.47;;
39322;SDS011;25036;53.638;10.134;2022-08-07T01:07:20;6.95;;;5.90;;
39322;SDS011;25036;53.638;10.134;2022-08-07T01:08:20;7.82;;;6.03;;
39322;SDS011;25036;53.638;10.134;2022-08-07T01:09:20;6.20;;;5.60;;
39322;SDS011;25036;53.638;10.134;2022-08-07T01:10:22;6.70;;;5.97;;
39322;SDS011;25036;53.638;10.134;2022-08-07T01:11:23;6.90;;;5.97;;
39322;SDS011;25036;53.638;10.134;2022-08-07T01:12:23;6.60;;;5.83;;
39322;SDS011;25036;53.638;10.134;2022-08-07T01:13:23;7.17;;;6.30;;
39322;SDS011;25036;53.638;10.134;2022-08-07T01:14:23;6.82;;;6.13;;
39322;SDS011;25036;53.638;10.134;2022-08-07T01:15:24;7.20;;;6.30;;
39322;SDS011;25036;53.638;10.134;2022-08-07T01:16:24;7.07;;;6.20;;
39322;SDS011;25036;53.638;10.134;2022-08-07T01:17:25;7.10;;;6.40;;
39322;SDS011;25036;53.638;10.134;2022-08-07T01:18:25;6.55;;;5.95;;
39322;SDS011;25036;53.638;10.134;2022-08-07T01:19:28;6.28;;;5.68;;
39322;SDS011;25036;53.638;10.134;2022-08-07T01:20:33;7.97;;;6.25;;
39322;SDS011;25036;53.638;10.134;2022-08-07T01:21:34;9.48;;;6.72;;
39322;SDS011;25036;53.638;10.134;2022-08-07T01:22:35;6.72;;;6.00;;
39322;SDS011;25036;53.638;10.134;2022-08-07T01:23:36;7.03;;;6.32;;
39322;SDS011;25036;53.638;10.134;2022-08-07T01:24:36;6.75;;;5.90;;
39322;SDS011;25036;53.638;10.134;2022-08-07T01:25:37;7.72;;;6.25;;
39322;SDS011;25036;53.638;10.134;2022-08-07T01:26:39;6.13;;;5.53;;
39322;SDS011;25036;53.638;10.134;2022-08-07T01:27:39;6.97;;;5.97;;
39322;SDS011;25036;53.638;10.134;2022-08-07T01:28:43;6.10;;;5.50;;
39322;SDS011;25036;53.638;10.134;2022-08-07T01:29:44;7.82;;;6.13;;
39322;SDS011;25036;53.638;10.134;2022-08-07T01:30:44;7.35;;;5.97;;
39322;SDS011;25036;53.638;10.134;2022-08-07T01:31:45;6.82;;;6.13;;
39322;SDS011;25036;53.638;10.134;2022-08-07T01:32:45;6.88;;;6.18;;
39322;SDS011;25036;53.638;10.134;2022-08-07T01:33:46;6.88;;;5.30;;
39322;SDS011;25036;53.638;10.134;2022-08-07T01:34:46;6.20;;;5.60;;
39322;SDS011;25036;53.638;10.134;2022-08-07T01:35:46;6.97;;;5.68;;
39322;SDS011;25036;53.638;10.134;2022-08-07T01:36:47;7.27;;;6.03;;
39322;SDS011;25036;53.638;10.134;2022-08-07T01:37:48;6.53;;;5.80;;
39322;SDS011;25036;53.638;10.134;2022-08-07T01:38:48;6.60;;;6.00;;
39322;SDS011;25036;53.638;10.134;2022-08-07T01:39:48;6.80;;;5.63;;
39322;SDS011;25036;53.638;10.134;2022-08-07T01:40:48;6.00;;;5.22;;
39322;SDS011;25036;53.638;10.134;2022-08-07T01:41:50;5.93;;;5.32;;
39322;SDS011;25036;53.638;10.134;2022-08-07T01:42:50;6.45;;;5.38;;
39322;SDS011;25036;53.638;10.134;2022-08-07T01:43:50;6.47;;;5.47;;
39322;SDS011;25036;53.638;10.134;2022-08-07T01:44:51;6.07;;;5.47;;
39322;SDS011;25036;53.638;10.134;2022-08-07T01:45:52;6.50;;;5.63;;
39322;SDS011;25036;53.638;10.134;2022-08-07T01:46:52;5.80;;;5.20;;
39322;SDS011;25036;53.638;10.134;2022-08-07T01:47:52;7.20;;;5.97;;
39322;SDS011;25036;53.638;10.134;2022-08-07T01:48:53;7.00;;;5.80;;
39322;SDS011;25036;53.638;10.134;2022-08-07T01:49:53;7.87;;;5.43;;
39322;SDS011;25036;53.638;10.134;2022-08-07T01:50:55;6.67;;;5.87;;
39322;SDS011;25036;53.638;10.134;2022-08-07T01:51:56;5.88;;;5.28;;
39322;SDS011;25036;53.638;10.134;2022-08-07T01:52:58;5.90;;;5.10;;
39322;SDS011;25036;53.638;10.134;2022-08-07T01:54:00;6.32;;;5.60;;
39322;SDS011;25036;53.638;10.134;2022-08-07T01:55:01;6.18;;;5.28;;
39322;SDS011;25036;53.638;10.134;2022-08-07T01:56:03;6.47;;;5.80;;
39322;SDS011;25036;53.638;10.134;2022-08-07T01:57:05;6.00;;;5.40;;
39322;SDS011;25036;53.638;10.134;2022-08-07T01:58:07;6.35;;;5.75;;
39322;SDS011;25036;53.638;10.134;2022-08-07T01:59:29;7.10;;;5.90;;
39322;SDS011;25036;53.638;10.134;2022-08-07T02:00:31;6.15;;;5.18;;
39322;SDS011;25036;53.638;10.134;2022-08-07T02:01:32;5.95;;;5.40;;
39322;SDS011;25036;53.638;10.134;2022-08-07T02:02:52;7.38;;;5.03;;
39322;SDS011;25036;53.638;10.134;2022-08-07T02:03:55;6.32;;;5.68;;
39322;SDS011;25036;53.638;10.134;2022-08-07T02:04:57;5.85;;;5.25;;
39322;SDS011;25036;53.638;10.134;2022-08-07T02:06:02;5.55;;;4.95;;
39322;SDS011;25036;53.638;10.134;2022-08-07T02:07:03;7.10;;;5.13;;
39322;SDS011;25036;53.638;10.134;2022-08-07T02:08:06;6.07;;;5.20;;
39322;SDS011;25036;53.638;10.134;2022-08-07T02:09:08;5.82;;;5.20;;
39322;SDS011;25036;53.638;10.134;2022-08-07T02:10:09;5.57;;;4.90;;
39322;SDS011;25036;53.638;10.134;2022-08-07T02:11:10;7.10;;;5.82;;
39322;SDS011;25036;53.638;10.134;2022-08-07T02:12:10;7.28;;;5.28;;
39322;SDS011;25036;53.638;10.134;2022-08-07T02:13:22;5.55;;;5.03;;
39322;SDS011;25036;53.638;10.134;2022-08-07T02:14:23;5.93;;;5.30;;
39322;SDS011;25036;53.638;10.134;2022-08-07T02:15:25;5.75;;;5.15;;
39322;SDS011;25036;53.638;10.134;2022-08-07T02:16:26;6.53;;;5.45;;
39322;SDS011;25036;53.638;10.134;2022-08-07T02:17:27;6.40;;;5.50;;
39322;SDS011;25036;53.638;10.134;2022-08-07T02:18:28;5.57;;;5.07;;
39322;SDS011;25036;53.638;10.134;2022-08-07T02:19:28;5.78;;;5.18;;
39322;SDS011;25036;53.638;10.134;2022-08-07T02:20:29;5.90;;;5.40;;
39322;SDS011;25036;53.638;10.134;2022-08-07T02:21:31;6.63;;;5.95;;
39322;SDS011;25036;53.638;10.134;2022-08-07T02:22:32;6.10;;;5.50;;
39322;SDS011;25036;53.638;10.134;2022-08-07T02:23:37;5.65;;;5.07;;
39322;SDS011;25036;53.638;10.134;2022-08-07T02:24:42;5.97;;;5.00;;
39322;SDS011;25036;53.638;10.134;2022-08-07T02:25:43;6.18;;;5.45;;
39322;SDS011;25036;53.638;10.134;2022-08-07T02:26:44;5.88;;;5.28;;
39322;SDS011;25036;53.638;10.134;2022-08-07T02:27:45;7.20;;;5.18;;
39322;SDS011;25036;53.638;10.134;2022-08-07T02:28:46;5.43;;;4.93;;
39322;SDS011;25036;53.638;10.134;2022-08-07T02:29:47;6.07;;;5.38;;
39322;SDS011;25036;53.638;10.134;2022-08-07T02:30:48;5.88;;;5.38;;
39322;SDS011;25036;53.638;10.134;2022-08-07T02:31:49;5.90;;;5.30;;
39322;SDS011;25036;53.638;10.134;2022-08-07T02:32:50;6.60;;;5.57;;
39322;SDS011;25036;53.638;10.134;2022-08-07T02:33:51;6.38;;;5.20;;
39322;SDS011;25036;53.638;10.134;2022-08-07T02:34:51;6.00;;;5.25;;
39322;SDS011;25036;53.638;10.134;2022-08-07T02:35:52;5.65;;;5.13;;
39322;SDS011;25036;53.638;10.134;2022-08-07T02:36:53;5.90;;;5.28;;
39322;SDS011;25036;53.638;10.134;2022-08-07T02:37:55;6.88;;;5.32;;
39322;SDS011;25036;53.638;10.134;2022-08-07T02:38:55;5.85;;;5.15;;
39322;SDS011;25036;53.638;10.134;2022-08-07T02:39:56;6.13;;;5.20;;
39322;SDS011;25036;53.638;10.134;2022-08-07T02:40:58;6.25;;;5.63;;
39322;SDS011;25036;53.638;10.134;2022-08-07T02:41:59;6.10;;;4.95;;
39322;SDS011;25036;53.638;10.134;2022-08-07T02:43:00;6.95;;;5.45;;
39322;SDS011;25036;53.638;10.134;2022-08-07T02:44:01;6.80;;;5.07;;
39322;SDS011;25036;53.638;10.134;2022-08-07T02:45:02;6.10;;;5.50;;
39322;SDS011;25036;53.638;10.134;2022-08-07T02:46:03;6.63;;;5.40;;
39322;SDS011;25036;53.638;10.134;2022-08-07T02:47:04;5.75;;;5.20;;
39322;SDS011;25036;53.638;10.134;2022-08-07T02:48:04;6.70;;;6.03;;
39322;SDS011;25036;53.638;10.134;2022-08-07T02:49:04;5.90;;;5.05;;
39322;SDS011;25036;53.638;10.134;2022-08-07T02:50:05;6.03;;;5.37;;
39322;SDS011;25036;53.638;10.134;2022-08-07T02:51:06;5.57;;;5.07;;
39322;SDS011;25036;53.638;10.134;2022-08-07T02:52:08;5.10;;;4.68;;
39322;SDS011;25036;53.638;10.134;2022-08-07T02:53:14;5.28;;;4.78;;
39322;SDS011;25036;53.638;10.134;2022-08-07T02:54:16;5.32;;;4.82;;
39322;SDS011;25036;53.638;10.134;2022-08-07T02:55:18;7.35;;;5.13;;
39322;SDS011;25036;53.638;10.134;2022-08-07T02:56:20;5.78;;;5.18;;
39322;SDS011;25036;53.638;10.134;2022-08-07T02:57:21;5.90;;;4.88;;
39322;SDS011;25036;53.638;10.134;2022-08-07T02:58:21;6.45;;;5.65;;
39322;SDS011;25036;53.638;10.134;2022-08-07T02:59:22;8.07;;;5.10;;
39322;SDS011;25036;53.638;10.134;2022-08-07T03:00:23;6.95;;;5.47;;
39322;SDS011;25036;53.638;10.134;2022-08-07T03:01:25;6.68;;;5.10;;
39322;SDS011;25036;53.638;10.134;2022-08-07T03:02:25;5.55;;;5.05;;
39322;SDS011;25036;53.638;10.134;2022-08-07T03:03:26;5.25;;;4.75;;
39322;SDS011;25036;53.638;10.134;2022-08-07T03:04:27;5.78;;;5.15;;
39322;SDS011;25036;53.638;10.134;2022-08-07T03:05:28;5.88;;;5.30;;
39322;SDS011;25036;53.638;10.134;2022-08-07T03:06:28;6.22;;;4.97;;
39322;SDS011;25036;53.638;10.134;2022-08-07T03:07:29;5.70;;;4.97;;
39322;SDS011;25036;53.638;10.134;2022-08-07T03:08:30;5.70;;;5.10;;
39322;SDS011;25036;53.638;10.134;2022-08-07T03:09:30;7.30;;;4.75;;
39322;SDS011;25036;53.638;10.134;2022-08-07T03:10:30;5.70;;;5.10;;
39322;SDS011;25036;53.638;10.134;2022-08-07T03:11:31;5.28;;;4.78;;
39322;SDS011;25036;53.638;10.134;2022-08-07T03:12:32;5.88;;;4.90;;
39322;SDS011;25036;53.638;10.134;2022-08-07T03:13:33;7.40;;;5.20;;
39322;SDS011;25036;53.638;10.134;2022-08-07T03:14:33;5.38;;;4.85;;
39322;SDS011;25036;53.638;10.134;2022-08-07T03:15:35;5.70;;;5.07;;
39322;SDS011;25036;53.638;10.134;2022-08-07T03:16:35;5.78;;;5.10;;
39322;SDS011;25036;53.638;10.134;2022-08-07T03:17:36;5.63;;;4.65;;
39322;SDS011;25036;53.638;10.134;2022-08-07T03:18:36;5.50;;;5.00;;
39322;SDS011;25036;53.638;10.134;2022-08-07T03:19:37;5.57;;;5.07;;
39322;SDS011;25036;53.638;10.134;2022-08-07T03:20:38;7.63;;;4.90;;
39322;SDS011;25036;53.638;10.134;2022-08-07T03:21:38;5.32;;;4.82;;
39322;SDS011;25036;53.638;10.134;2022-08-07T03:22:39;5.17;;;4.77;;
39322;SDS011;25036;53.638;10.134;2022-08-07T03:23:40;7.15;;;5.05;;
39322;SDS011;25036;53.638;10.134;2022-08-07T03:24:42;5.10;;;4.60;;
39322;SDS011;25036;53.638;10.134;2022-08-07T03:25:42;5.23;;;4.70;;
39322;SDS011;25036;53.638;10.134;2022-08-07T03:26:44;6.10;;;4.93;;
39322;SDS011;25036;53.638;10.134;2022-08-07T03:27:45;5.75;;;5.00;;
39322;SDS011;25036;53.638;10.134;2022-08-07T03:28:46;5.20;;;4.70;;
39322;SDS011;25036;53.638;10.134;2022-08-07T03:29:47;6.28;;;5.38;;
39322;SDS011;25036;53.638;10.134;2022-08-07T03:30:48;5.32;;;4.82;;
39322;SDS011;25036;53.638;10.134;2022-08-07T03:31:49;5.65;;;5.07;;
39322;SDS011;25036;53.638;10.134;2022-08-07T03:32:50;5.15;;;4.75;;
39322;SDS011;25036;53.638;10.134;2022-08-07T03:33:55;5.35;;;4.85;;
39322;SDS011;25036;53.638;10.134;2022-08-07T03:34:57;5.43;;;4.93;;
39322;SDS011;25036;53.638;10.134;2022-08-07T03:35:57;5.43;;;4.65;;
39322;SDS011;25036;53.638;10.134;2022-08-07T03:36:58;5.00;;;4.50;;
39322;SDS011;25036;53.638;10.134;2022-08-07T03:38:03;6.07;;;5.45;;
39322;SDS011;25036;53.638;10.134;2022-08-07T03:39:06;5.20;;;4.70;;
39322;SDS011;25036;53.638;10.134;2022-08-07T03:40:07;5.28;;;4.78;;
39322;SDS011;25036;53.638;10.134;2022-08-07T03:41:08;6.40;;;4.93;;
39322;SDS011;25036;53.638;10.134;2022-08-07T03:42:09;5.50;;;4.70;;
39322;SDS011;25036;53.638;10.134;2022-08-07T03:43:10;4.95;;;4.45;;
39322;SDS011;25036;53.638;10.134;2022-08-07T03:44:10;5.90;;;4.63;;
39322;SDS011;25036;53.638;10.134;2022-08-07T03:45:11;5.15;;;4.65;;
39322;SDS011;25036;53.638;10.134;2022-08-07T03:46:11;5.28;;;4.65;;
39322;SDS011;25036;53.638;10.134;2022-08-07T03:47:12;5.53;;;5.03;;
39322;SDS011;25036;53.638;10.134;2022-08-07T03:48:12;6.00;;;5.20;;
39322;SDS011;25036;53.638;10.134;2022-08-07T03:49:12;5.53;;;5.03;;
39322;SDS011;25036;53.638;10.134;2022-08-07T03:50:13;5.13;;;4.50;;
39322;SDS011;25036;53.638;10.134;2022-08-07T03:51:13;6.27;;;4.80;;
39322;SDS011;25036;53.638;10.134;2022-08-07T03:52:13;5.13;;;4.63;;
39322;SDS011;25036;53.638;10.134;2022-08-07T03:53:14;6.00;;;5.20;;
39322;SDS011;25036;53.638;10.134;2022-08-07T03:54:15;5.10;;;4.60;;
39322;SDS011;25036;53.638;10.134;2022-08-07T03:55:16;5.30;;;4.80;;
39322;SDS011;25036;53.638;10.134;2022-08-07T03:56:20;5.43;;;4.93;;
39322;SDS011;25036;53.638;10.134;2022-08-07T03:57:20;5.30;;;4.57;;
39322;SDS011;25036;53.638;10.134;2022-08-07T03:58:21;5.22;;;4.70;;
39322;SDS011;25036;53.638;10.134;2022-08-07T03:59:22;5.55;;;4.75;;
39322;SDS011;25036;53.638;10.134;2022-08-07T04:00:24;5.50;;;4.95;;
39322;SDS011;25036;53.638;10.134;2022-08-07T04:01:25;5.05;;;4.55;;
39322;SDS011;25036;53.638;10.134;2022-08-07T04:02:26;5.53;;;4.95;;
39322;SDS011;25036;53.638;10.134;2022-08-07T04:03:27;5.15;;;4.50;;
39322;SDS011;25036;53.638;10.134;2022-08-07T04:04:27;5.45;;;4.95;;
39322;SDS011;25036;53.638;10.134;2022-08-07T04:05:27;5.60;;;4.97;;
39322;SDS011;25036;53.638;10.134;2022-08-07T04:06:28;5.28;;;4.43;;
39322;SDS011;25036;53.638;10.134;2022-08-07T04:07:28;5.10;;;4.60;;
39322;SDS011;25036;53.638;10.134;2022-08-07T04:08:28;5.55;;;4.53;;
39322;SDS011;25036;53.638;10.134;2022-08-07T04:09:29;4.93;;;4.43;;
39322;SDS011;25036;53.638;10.134;2022-08-07T04:10:30;4.70;;;4.30;;
39322;SDS011;25036;53.638;10.134;2022-08-07T04:11:31;4.80;;;4.20;;
39322;SDS011;25036;53.638;10.134;2022-08-07T04:12:32;5.60;;;4.43;;
39322;SDS011;25036;53.638;10.134;2022-08-07T04:13:32;5.35;;;4.25;;
39322;SDS011;25036;53.638;10.134;2022-08-07T04:14:33;4.25;;;3.85;;
39322;SDS011;25036;53.638;10.134;2022-08-07T04:15:33;5.30;;;4.22;;
39322;SDS011;25036;53.638;10.134;2022-08-07T04:16:33;4.68;;;4.20;;
39322;SDS011;25036;53.638;10.134;2022-08-07T04:17:34;6.07;;;4.55;;
39322;SDS011;25036;53.638;10.134;2022-08-07T04:18:34;4.82;;;4.30;;
39322;SDS011;25036;53.638;10.134;2022-08-07T04:19:34;4.45;;;4.05;;
39322;SDS011;25036;53.638;10.134;2022-08-07T04:20:35;5.18;;;4.28;;
39322;SDS011;25036;53.638;10.134;2022-08-07T04:21:35;5.10;;;4.57;;
39322;SDS011;25036;53.638;10.134;2022-08-07T04:22:35;4.35;;;3.95;;
39322;SDS011;25036;53.638;10.134;2022-08-07T04:23:35;4.47;;;4.07;;
39322;SDS011;25036;53.638;10.134;2022-08-07T04:24:37;4.75;;;3.90;;
39322;SDS011;25036;53.638;10.134;2022-08-07T04:25:37;5.70;;;4.22;;
39322;SDS011;25036;53.638;10.134;2022-08-07T04:26:39;4.75;;;4.32;;
39322;SDS011;25036;53.638;10.134;2022-08-07T04:27:39;5.10;;;4.18;;
39322;SDS011;25036;53.638;10.134;2022-08-07T04:28:40;5.57;;;4.30;;
39322;SDS011;25036;53.638;10.134;2022-08-07T04:29:42;4.70;;;4.20;;
39322;SDS011;25036;53.638;10.134;2022-08-07T04:30:45;4.63;;;4.22;;
39322;SDS011;25036;53.638;10.134;2022-08-07T04:31:46;5.35;;;4.30;;
39322;SDS011;25036;53.638;10.134;2022-08-07T04:32:46;4.57;;;4.18;;
39322;SDS011;25036;53.638;10.134;2022-08-07T04:33:46;4.97;;;4.25;;
39322;SDS011;25036;53.638;10.134;2022-08-07T04:34:47;4.72;;;4.30;;
39322;SDS011;25036;53.638;10.134;2022-08-07T04:35:49;4.40;;;3.92;;
39322;SDS011;25036;53.638;10.134;2022-08-07T04:36:49;5.30;;;4.80;;
39322;SDS011;25036;53.638;10.134;2022-08-07T04:37:50;4.68;;;4.28;;
39322;SDS011;25036;53.638;10.134;2022-08-07T04:38:50;5.50;;;4.57;;
39322;SDS011;25036;53.638;10.134;2022-08-07T04:39:50;4.65;;;4.18;;
39322;SDS011;25036;53.638;10.134;2022-08-07T04:40:51;5.00;;;4.20;;
39322;SDS011;25036;53.638;10.134;2022-08-07T04:41:51;5.43;;;4.68;;
39322;SDS011;25036;53.638;10.134;2022-08-07T04:42:51;5.67;;;4.43;;
39322;SDS011;25036;53.638;10.134;2022-08-07T04:43:52;4.35;;;3.95;;
39322;SDS011;25036;53.638;10.134;2022-08-07T04:44:54;6.03;;;4.60;;
39322;SDS011;25036;53.638;10.134;2022-08-07T04:46:00;5.93;;;4.38;;
39322;SDS011;25036;53.638;10.134;2022-08-07T04:47:04;4.60;;;4.20;;
39322;SDS011;25036;53.638;10.134;2022-08-07T04:48:07;4.40;;;4.00;;
39322;SDS011;25036;53.638;10.134;2022-08-07T04:50:52;6.05;;;4.32;;
39322;SDS011;25036;53.638;10.134;2022-08-07T04:52:58;4.70;;;4.30;;
39322;SDS011;25036;53.638;10.134;2022-08-07T04:54:07;5.10;;;4.57;;
39322;SDS011;25036;53.638;10.134;2022-08-07T04:56:31;5.68;;;4.18;;
39322;SDS011;25036;53.638;10.134;2022-08-07T04:57:35;4.93;;;4.15;;
39322;SDS011;25036;53.638;10.134;2022-08-07T04:58:42;4.68;;;4.22;;
39322;SDS011;25036;53.638;10.134;2022-08-07T04:59:45;5.35;;;4.55;;
39322;SDS011;25036;53.638;10.134;2022-08-07T05:00:58;6.43;;;4.13;;
39322;SDS011;25036;53.638;10.134;2022-08-07T05:02:07;5.30;;;4.35;;
39322;SDS011;25036;53.638;10.134;2022-08-07T05:03:13;5.60;;;4.47;;
39322;SDS011;25036;53.638;10.134;2022-08-07T05:05:29;5.63;;;4.90;;
39322;SDS011;25036;53.638;10.134;2022-08-07T05:06:31;5.55;;;4.75;;
39322;SDS011;25036;53.638;10.134;2022-08-07T05:08:57;5.07;;;4.45;;
39322;SDS011;25036;53.638;10.134;2022-08-07T05:10:05;5.47;;;4.13;;
39322;SDS011;25036;53.638;10.134;2022-08-07T05:11:12;5.15;;;4.65;;
39322;SDS011;25036;53.638;10.134;2022-08-07T05:12:14;5.18;;;4.63;;
39322;SDS011;25036;53.638;10.134;2022-08-07T05:13:16;6.50;;;4.75;;
39322;SDS011;25036;53.638;10.134;2022-08-07T05:14:31;7.05;;;4.78;;
39322;SDS011;25036;53.638;10.134;2022-08-07T05:15:33;5.70;;;4.60;;
39322;SDS011;25036;53.638;10.134;2022-08-07T05:16:35;5.13;;;4.60;;
39322;SDS011;25036;53.638;10.134;2022-08-07T05:17:36;5.63;;;4.65;;
39322;SDS011;25036;53.638;10.134;2022-08-07T05:18:39;5.00;;;4.50;;
39322;SDS011;25036;53.638;10.134;2022-08-07T05:19:41;5.82;;;4.80;;
39322;SDS011;25036;53.638;10.134;2022-08-07T05:20:44;5.55;;;5.00;;
39322;SDS011;25036;53.638;10.134;2022-08-07T05:21:49;5.13;;;4.60;;
39322;SDS011;25036;53.638;10.134;2022-08-07T05:22:51;6.05;;;5.00;;
39322;SDS011;25036;53.638;10.134;2022-08-07T05:23:57;5.70;;;5.10;;
39322;SDS011;25036;53.638;10.134;2022-08-07T05:24:57;6.10;;;4.95;;
39322;SDS011;25036;53.638;10.134;2022-08-07T05:25:59;5.47;;;4.93;;
39322;SDS011;25036;53.638;10.134;2022-08-07T05:27:00;6.68;;;5.00;;
39322;SDS011;25036;53.638;10.134;2022-08-07T05:28:00;6.72;;;5.38;;
39322;SDS011;25036;53.638;10.134;2022-08-07T05:29:02;7.47;;;5.25;;
39322;SDS011;25036;53.638;10.134;2022-08-07T05:30:03;5.95;;;5.32;;
39322;SDS011;25036;53.638;10.134;2022-08-07T05:31:03;5.85;;;5.03;;
39322;SDS011;25036;53.638;10.134;2022-08-07T05:32:07;6.68;;;5.13;;
39322;SDS011;25036;53.638;10.134;2022-08-07T05:33:07;5.85;;;4.95;;
39322;SDS011;25036;53.638;10.134;2022-08-07T05:34:12;5.70;;;5.03;;
39322;SDS011;25036;53.638;10.134;2022-08-07T05:35:12;6.53;;;5.82;;
39322;SDS011;25036;53.638;10.134;2022-08-07T05:36:13;6.13;;;5.40;;
39322;SDS011;25036;53.638;10.134;2022-08-07T05:37:13;6.03;;;5.43;;
39322;SDS011;25036;53.638;10.134;2022-08-07T05:38:14;6.97;;;5.72;;
39322;SDS011;25036;53.638;10.134;2022-08-07T05:39:15;7.45;;;5.60;;
39322;SDS011;25036;53.638;10.134;2022-08-07T05:40:16;7.40;;;6.13;;
39322;SDS011;25036;53.638;10.134;2022-08-07T05:41:16;8.32;;;6.18;;
39322;SDS011;25036;53.638;10.134;2022-08-07T05:42:17;7.00;;;6.13;;
39322;SDS011;25036;53.638;10.134;2022-08-07T05:43:17;9.38;;;6.15;;
39322;SDS011;25036;53.638;10.134;2022-08-07T05:44:18;6.82;;;5.82;;
39322;SDS011;25036;53.638;10.134;2022-08-07T05:45:19;8.52;;;6.35;;
39322;SDS011;25036;53.638;10.134;2022-08-07T05:46:20;7.00;;;6.28;;
39322;SDS011;25036;53.638;10.134;2022-08-07T05:47:21;6.95;;;6.25;;
39322;SDS011;25036;53.638;10.134;2022-08-07T05:48:22;8.98;;;6.28;;
39322;SDS011;25036;53.638;10.134;2022-08-07T05:49:22;8.93;;;6.60;;
39322;SDS011;25036;53.638;10.134;2022-08-07T05:50:23;8.93;;;6.15;;
39322;SDS011;25036;53.638;10.134;2022-08-07T05:51:23;8.02;;;6.40;;
39322;SDS011;25036;53.638;10.134;2022-08-07T05:52:23;8.25;;;6.03;;
39322;SDS011;25036;53.638;10.134;2022-08-07T05:53:23;9.25;;;6.07;;
39322;SDS011;25036;53.638;10.134;2022-08-07T05:54:23;9.20;;;6.57;;
39322;SDS011;25036;53.638;10.134;2022-08-07T05:55:24;7.22;;;6.07;;
39322;SDS011;25036;53.638;10.134;2022-08-07T05:56:24;7.00;;;6.30;;
39322;SDS011;25036;53.638;10.134;2022-08-07T05:57:25;8.43;;;6.43;;
39322;SDS011;25036;53.638;10.134;2022-08-07T05:58:25;7.90;;;6.05;;
39322;SDS011;25036;53.638;10.134;2022-08-07T05:59:26;9.32;;;6.50;;
39322;SDS011;25036;53.638;10.134;2022-08-07T06:00:26;8.68;;;6.07;;
39322;SDS011;25036;53.638;10.134;2022-08-07T06:01:27;7.43;;;6.45;;
39322;SDS011;25036;53.638;10.134;2022-08-07T06:02:28;8.32;;;6.70;;
39322;SDS011;25036;53.638;10.134;2022-08-07T06:03:30;10.25;;;6.65;;
39322;SDS011;25036;53.638;10.134;2022-08-07T06:04:31;8.40;;;6.88;;
39322;SDS011;25036;53.638;10.134;2022-08-07T06:05:33;8.48;;;6.40;;
39322;SDS011;25036;53.638;10.134;2022-08-07T06:06:33;8.13;;;6.53;;
39322;SDS011;25036;53.638;10.134;2022-08-07T06:07:33;8.43;;;6.80;;
39322;SDS011;25036;53.638;10.134;2022-08-07T06:08:34;8.88;;;6.07;;
39322;SDS011;25036;53.638;10.134;2022-08-07T06:09:34;9.95;;;7.63;;
39322;SDS011;25036;53.638;10.134;2022-08-07T06:10:35;9.02;;;7.03;;